< Cyclone 198011 1980 Season Cyclone 198013 >
Cyclone 198012 (SIMON)
General InformationTrack Information on Google Maps || ResourceGoogle EarthGE AnimationAtom FeedGeoJSON
Detalied Best Track (Time Zone = UTC)
Year Month Day Hour Lat. Long. Pressure (hPa) Wind (kt) Class Image Chart
1980 2 21 18 -16.9 153.8 1002 0 0 -- --
1980 2 22 00 -17.7 153.4 1000 0 0 -- --
1980 2 22 06 -18.5 153.1 995 0 0 -- --
1980 2 22 12 -19.2 152.8 992 0 0 -- --
1980 2 22 18 -19.9 152.3 990 0 0 -- --
1980 2 23 00 -20.4 152.0 980 0 0 -- --
1980 2 23 06 -21.2 151.4 975 0 0 -- --
1980 2 23 12 -21.5 151.0 970 0 0 -- --
1980 2 23 18 -22.1 150.9 960 0 0 -- --
1980 2 24 00 -22.4 150.8 950 0 0 -- --
1980 2 24 06 -22.6 151.0 955 0 0 -- --
1980 2 24 12 -22.8 151.5 960 0 0 -- --
1980 2 24 18 -22.7 151.8 960 0 0 -- --
1980 2 25 00 -22.9 151.9 960 0 0 -- --
1980 2 25 06 -23.1 152.3 960 0 0 -- --
1980 2 25 12 -23.2 152.6 960 0 0 -- --
1980 2 25 18 -23.0 152.7 960 0 0 -- --
1980 2 26 00 -23.2 152.5 960 0 0 -- --
1980 2 26 06 -23.2 152.8 960 0 0 -- --
1980 2 26 12 -23.5 153.1 960 0 0 -- --
1980 2 26 18 -24.1 153.2 960 0 0 -- --
1980 2 27 00 -24.5 153.6 960 0 0 -- --
1980 2 27 06 -25.4 154.1 970 0 0 -- --
1980 2 27 12 -26.4 155.1 978 0 0 -- --
1980 2 27 18 -27.4 156.3 980 0 0 -- --
1980 2 28 00 -28.4 157.7 984 0 0 -- --
1980 2 28 06 -29.4 159.1 988 0 0 -- --
1980 2 28 12 -30.4 160.5 992 0 0 -- --
< Cyclone 198011 1980 Season Cyclone 198013 >

Help